sensor_id;sensor_type;location;lat;lon;timestamp;P1;durP1;ratioP1;P2;durP2;ratioP2
34571;SDS011;20808;48.974;8.452;2023-01-10T00:00:00;3.23;;;2.17;;
34571;SDS011;20808;48.974;8.452;2023-01-10T00:00:16;4.50;;;2.20;;
34571;SDS011;20808;48.974;8.452;2023-01-10T00:00:33;4.53;;;2.30;;
34571;SDS011;20808;48.974;8.452;2023-01-10T00:00:51;4.82;;;2.40;;
34571;SDS011;20808;48.974;8.452;2023-01-10T00:01:07;5.30;;;2.50;;
34571;SDS011;20808;48.974;8.452;2023-01-10T00:01:23;4.70;;;2.35;;
34571;SDS011;20808;48.974;8.452;2023-01-10T00:01:39;5.68;;;2.30;;
34571;SDS011;20808;48.974;8.452;2023-01-10T00:01:55;5.97;;;2.30;;
34571;SDS011;20808;48.974;8.452;2023-01-10T00:02:11;4.53;;;2.20;;
34571;SDS011;20808;48.974;8.452;2023-01-10T00:02:27;3.53;;;2.10;;
34571;SDS011;20808;48.974;8.452;2023-01-10T00:02:43;2.70;;;2.10;;
34571;SDS011;20808;48.974;8.452;2023-01-10T00:02:59;2.90;;;2.00;;
34571;SDS011;20808;48.974;8.452;2023-01-10T00:03:16;4.40;;;2.08;;
34571;SDS011;20808;48.974;8.452;2023-01-10T00:03:32;4.72;;;2.20;;
34571;SDS011;20808;48.974;8.452;2023-01-10T00:03:48;6.30;;;2.20;;
34571;SDS011;20808;48.974;8.452;2023-01-10T00:04:04;7.83;;;2.30;;
34571;SDS011;20808;48.974;8.452;2023-01-10T00:04:20;8.60;;;2.35;;
34571;SDS011;20808;48.974;8.452;2023-01-10T00:04:37;8.63;;;2.50;;
34571;SDS011;20808;48.974;8.452;2023-01-10T00:04:53;6.55;;;2.20;;
34571;SDS011;20808;48.974;8.452;2023-01-10T00:05:08;4.68;;;2.20;;
34571;SDS011;20808;48.974;8.452;2023-01-10T00:05:24;3.67;;;2.00;;
34571;SDS011;20808;48.974;8.452;2023-01-10T00:05:40;3.33;;;1.90;;
34571;SDS011;20808;48.974;8.452;2023-01-10T00:05:57;3.05;;;2.00;;
34571;SDS011;20808;48.974;8.452;2023-01-10T00:06:13;2.78;;;2.00;;
34571;SDS011;20808;48.974;8.452;2023-01-10T00:06:28;3.95;;;2.00;;
34571;SDS011;20808;48.974;8.452;2023-01-10T00:06:44;4.83;;;2.10;;
34571;SDS011;20808;48.974;8.452;2023-01-10T00:07:00;4.80;;;2.20;;
34571;SDS011;20808;48.974;8.452;2023-01-10T00:07:17;4.43;;;2.20;;
34571;SDS011;20808;48.974;8.452;2023-01-10T00:07:33;3.33;;;2.20;;
34571;SDS011;20808;48.974;8.452;2023-01-10T00:07:48;3.80;;;2.28;;
34571;SDS011;20808;48.974;8.452;2023-01-10T00:08:05;3.80;;;2.20;;
34571;SDS011;20808;48.974;8.452;2023-01-10T00:08:21;4.32;;;2.25;;
34571;SDS011;20808;48.974;8.452;2023-01-10T00:08:38;3.38;;;2.20;;
34571;SDS011;20808;48.974;8.452;2023-01-10T00:08:54;3.97;;;2.25;;
34571;SDS011;20808;48.974;8.452;2023-01-10T00:09:11;4.03;;;2.33;;
34571;SDS011;20808;48.974;8.452;2023-01-10T00:09:27;3.70;;;2.30;;
34571;SDS011;20808;48.974;8.452;2023-01-10T00:09:43;3.47;;;2.22;;
34571;SDS011;20808;48.974;8.452;2023-01-10T00:09:59;3.45;;;2.10;;
34571;SDS011;20808;48.974;8.452;2023-01-10T00:10:15;4.60;;;2.20;;
34571;SDS011;20808;48.974;8.452;2023-01-10T00:10:31;4.68;;;2.10;;
34571;SDS011;20808;48.974;8.452;2023-01-10T00:10:47;4.15;;;2.10;;
34571;SDS011;20808;48.974;8.452;2023-01-10T00:11:03;4.07;;;2.03;;
34571;SDS011;20808;48.974;8.452;2023-01-10T00:11:39;4.13;;;1.98;;
34571;SDS011;20808;48.974;8.452;2023-01-10T00:12:15;4.15;;;1.90;;
34571;SDS011;20808;48.974;8.452;2023-01-10T00:12:49;3.65;;;2.10;;
34571;SDS011;20808;48.974;8.452;2023-01-10T00:13:20;5.13;;;2.40;;
34571;SDS011;20808;48.974;8.452;2023-01-10T00:13:39;6.00;;;2.42;;
34571;SDS011;20808;48.974;8.452;2023-01-10T00:13:55;6.65;;;2.50;;
34571;SDS011;20808;48.974;8.452;2023-01-10T00:14:12;5.75;;;2.40;;
34571;SDS011;20808;48.974;8.452;2023-01-10T00:14:27;6.45;;;2.35;;
34571;SDS011;20808;48.974;8.452;2023-01-10T00:14:44;5.15;;;2.15;;
34571;SDS011;20808;48.974;8.452;2023-01-10T00:14:59;4.40;;;2.20;;
34571;SDS011;20808;48.974;8.452;2023-01-10T00:15:15;4.78;;;2.30;;
34571;SDS011;20808;48.974;8.452;2023-01-10T00:15:32;4.53;;;2.47;;
34571;SDS011;20808;48.974;8.452;2023-01-10T00:15:49;4.85;;;2.60;;
34571;SDS011;20808;48.974;8.452;2023-01-10T00:16:06;5.32;;;2.60;;
34571;SDS011;20808;48.974;8.452;2023-01-10T00:16:23;5.90;;;2.70;;
34571;SDS011;20808;48.974;8.452;2023-01-10T00:16:39;6.20;;;2.47;;
34571;SDS011;20808;48.974;8.452;2023-01-10T00:16:56;6.30;;;2.60;;
34571;SDS011;20808;48.974;8.452;2023-01-10T00:17:12;5.97;;;2.50;;
34571;SDS011;20808;48.974;8.452;2023-01-10T00:17:28;4.45;;;2.30;;
34571;SDS011;20808;48.974;8.452;2023-01-10T00:17:44;4.00;;;2.30;;
34571;SDS011;20808;48.974;8.452;2023-01-10T00:17:59;3.63;;;2.20;;
34571;SDS011;20808;48.974;8.452;2023-01-10T00:18:16;3.60;;;2.10;;
34571;SDS011;20808;48.974;8.452;2023-01-10T00:18:32;3.80;;;2.20;;
34571;SDS011;20808;48.974;8.452;2023-01-10T00:18:48;3.58;;;2.10;;
34571;SDS011;20808;48.974;8.452;2023-01-10T00:19:04;3.33;;;2.20;;
34571;SDS011;20808;48.974;8.452;2023-01-10T00:19:20;3.40;;;2.20;;
34571;SDS011;20808;48.974;8.452;2023-01-10T00:19:36;3.57;;;2.20;;
34571;SDS011;20808;48.974;8.452;2023-01-10T00:19:52;3.10;;;2.30;;
34571;SDS011;20808;48.974;8.452;2023-01-10T00:20:09;4.40;;;2.20;;
34571;SDS011;20808;48.974;8.452;2023-01-10T00:20:25;4.93;;;2.40;;
34571;SDS011;20808;48.974;8.452;2023-01-10T00:20:41;5.28;;;2.35;;
34571;SDS011;20808;48.974;8.452;2023-01-10T00:20:58;5.05;;;2.30;;
34571;SDS011;20808;48.974;8.452;2023-01-10T00:21:15;4.20;;;2.30;;
34571;SDS011;20808;48.974;8.452;2023-01-10T00:21:32;4.85;;;2.33;;
34571;SDS011;20808;48.974;8.452;2023-01-10T00:21:48;5.47;;;2.67;;
34571;SDS011;20808;48.974;8.452;2023-01-10T00:22:04;5.50;;;2.70;;
34571;SDS011;20808;48.974;8.452;2023-01-10T00:22:27;5.80;;;2.60;;
34571;SDS011;20808;48.974;8.452;2023-01-10T00:22:43;4.65;;;2.30;;
34571;SDS011;20808;48.974;8.452;2023-01-10T00:23:00;4.25;;;2.28;;
34571;SDS011;20808;48.974;8.452;2023-01-10T00:23:17;5.75;;;2.50;;
34571;SDS011;20808;48.974;8.452;2023-01-10T00:23:37;6.07;;;2.50;;
34571;SDS011;20808;48.974;8.452;2023-01-10T00:23:53;6.10;;;2.50;;
34571;SDS011;20808;48.974;8.452;2023-01-10T00:24:09;4.38;;;2.20;;
34571;SDS011;20808;48.974;8.452;2023-01-10T00:24:32;3.50;;;2.10;;
34571;SDS011;20808;48.974;8.452;2023-01-10T00:24:50;3.50;;;2.20;;
34571;SDS011;20808;48.974;8.452;2023-01-10T00:25:06;4.40;;;2.28;;
34571;SDS011;20808;48.974;8.452;2023-01-10T00:25:22;4.68;;;2.33;;
34571;SDS011;20808;48.974;8.452;2023-01-10T00:25:38;4.32;;;2.40;;
34571;SDS011;20808;48.974;8.452;2023-01-10T00:25:54;5.68;;;2.50;;
34571;SDS011;20808;48.974;8.452;2023-01-10T00:26:11;5.93;;;2.55;;
34571;SDS011;20808;48.974;8.452;2023-01-10T00:26:27;5.32;;;2.45;;
34571;SDS011;20808;48.974;8.452;2023-01-10T00:26:43;4.53;;;2.13;;
34571;SDS011;20808;48.974;8.452;2023-01-10T00:27:04;4.25;;;2.20;;
34571;SDS011;20808;48.974;8.452;2023-01-10T00:27:22;4.18;;;2.20;;
34571;SDS011;20808;48.974;8.452;2023-01-10T00:27:38;4.30;;;2.20;;
34571;SDS011;20808;48.974;8.452;2023-01-10T00:27:55;4.30;;;2.20;;
34571;SDS011;20808;48.974;8.452;2023-01-10T00:28:16;4.25;;;2.10;;
34571;SDS011;20808;48.974;8.452;2023-01-10T00:28:33;5.28;;;2.10;;
34571;SDS011;20808;48.974;8.452;2023-01-10T00:28:50;5.60;;;2.10;;
34571;SDS011;20808;48.974;8.452;2023-01-10T00:29:06;4.97;;;2.00;;
34571;SDS011;20808;48.974;8.452;2023-01-10T00:29:24;4.22;;;2.10;;
34571;SDS011;20808;48.974;8.452;2023-01-10T00:29:41;2.83;;;2.10;;
34571;SDS011;20808;48.974;8.452;2023-01-10T00:29:57;2.88;;;2.10;;
34571;SDS011;20808;48.974;8.452;2023-01-10T00:30:15;3.45;;;2.10;;
34571;SDS011;20808;48.974;8.452;2023-01-10T00:30:32;4.13;;;2.25;;
34571;SDS011;20808;48.974;8.452;2023-01-10T00:30:49;4.10;;;2.30;;
34571;SDS011;20808;48.974;8.452;2023-01-10T00:31:10;4.70;;;2.38;;
34571;SDS011;20808;48.974;8.452;2023-01-10T00:31:27;4.90;;;2.20;;
34571;SDS011;20808;48.974;8.452;2023-01-10T00:31:43;5.13;;;2.20;;
34571;SDS011;20808;48.974;8.452;2023-01-10T00:31:59;4.78;;;2.10;;
34571;SDS011;20808;48.974;8.452;2023-01-10T00:32:15;3.85;;;2.00;;
34571;SDS011;20808;48.974;8.452;2023-01-10T00:32:32;3.03;;;1.90;;
34571;SDS011;20808;48.974;8.452;2023-01-10T00:32:47;3.70;;;1.83;;
34571;SDS011;20808;48.974;8.452;2023-01-10T00:33:03;3.50;;;1.80;;
34571;SDS011;20808;48.974;8.452;2023-01-10T00:33:19;3.75;;;1.80;;
34571;SDS011;20808;48.974;8.452;2023-01-10T00:33:36;3.90;;;1.70;;
34571;SDS011;20808;48.974;8.452;2023-01-10T00:33:53;3.47;;;1.75;;
34571;SDS011;20808;48.974;8.452;2023-01-10T00:34:09;3.63;;;1.80;;
34571;SDS011;20808;48.974;8.452;2023-01-10T00:34:24;2.80;;;1.70;;
34571;SDS011;20808;48.974;8.452;2023-01-10T00:34:41;3.42;;;1.80;;
34571;SDS011;20808;48.974;8.452;2023-01-10T00:34:56;2.90;;;1.80;;
34571;SDS011;20808;48.974;8.452;2023-01-10T00:35:14;2.90;;;1.80;;
34571;SDS011;20808;48.974;8.452;2023-01-10T00:35:29;2.63;;;1.87;;
34571;SDS011;20808;48.974;8.452;2023-01-10T00:35:45;2.97;;;1.80;;
34571;SDS011;20808;48.974;8.452;2023-01-10T00:36:02;3.20;;;1.85;;
34571;SDS011;20808;48.974;8.452;2023-01-10T00:36:19;3.20;;;1.90;;
34571;SDS011;20808;48.974;8.452;2023-01-10T00:36:35;3.08;;;1.90;;
34571;SDS011;20808;48.974;8.452;2023-01-10T00:36:52;2.95;;;1.80;;
34571;SDS011;20808;48.974;8.452;2023-01-10T00:37:08;3.97;;;1.87;;
34571;SDS011;20808;48.974;8.452;2023-01-10T00:37:23;4.10;;;1.80;;
34571;SDS011;20808;48.974;8.452;2023-01-10T00:37:39;3.95;;;1.80;;
34571;SDS011;20808;48.974;8.452;2023-01-10T00:37:55;5.38;;;1.73;;
34571;SDS011;20808;48.974;8.452;2023-01-10T00:38:16;4.28;;;1.70;;
34571;SDS011;20808;48.974;8.452;2023-01-10T00:38:32;4.63;;;1.70;;
34571;SDS011;20808;48.974;8.452;2023-01-10T00:38:49;4.32;;;1.90;;
34571;SDS011;20808;48.974;8.452;2023-01-10T00:39:05;3.43;;;1.70;;
34571;SDS011;20808;48.974;8.452;2023-01-10T00:39:23;3.40;;;1.80;;
34571;SDS011;20808;48.974;8.452;2023-01-10T00:39:41;3.63;;;1.80;;
34571;SDS011;20808;48.974;8.452;2023-01-10T00:39:57;3.22;;;1.90;;
34571;SDS011;20808;48.974;8.452;2023-01-10T00:40:13;3.07;;;1.90;;
34571;SDS011;20808;48.974;8.452;2023-01-10T00:40:28;3.10;;;1.90;;
34571;SDS011;20808;48.974;8.452;2023-01-10T00:40:44;2.60;;;1.90;;
34571;SDS011;20808;48.974;8.452;2023-01-10T00:41:01;2.80;;;1.80;;
34571;SDS011;20808;48.974;8.452;2023-01-10T00:41:17;2.40;;;1.70;;
34571;SDS011;20808;48.974;8.452;2023-01-10T00:41:51;2.47;;;1.60;;
34571;SDS011;20808;48.974;8.452;2023-01-10T00:42:27;3.72;;;1.70;;
34571;SDS011;20808;48.974;8.452;2023-01-10T00:43:01;4.65;;;1.52;;
34571;SDS011;20808;48.974;8.452;2023-01-10T00:43:36;4.03;;;1.60;;
34571;SDS011;20808;48.974;8.452;2023-01-10T00:44:10;3.20;;;1.70;;
34571;SDS011;20808;48.974;8.452;2023-01-10T00:44:26;4.28;;;1.60;;
34571;SDS011;20808;48.974;8.452;2023-01-10T00:44:42;4.10;;;1.60;;
34571;SDS011;20808;48.974;8.452;2023-01-10T00:45:00;4.50;;;1.70;;
34571;SDS011;20808;48.974;8.452;2023-01-10T00:45:16;4.25;;;1.60;;
34571;SDS011;20808;48.974;8.452;2023-01-10T00:45:33;3.00;;;1.65;;
34571;SDS011;20808;48.974;8.452;2023-01-10T00:45:49;3.58;;;1.60;;
34571;SDS011;20808;48.974;8.452;2023-01-10T00:46:05;3.80;;;1.60;;
34571;SDS011;20808;48.974;8.452;2023-01-10T00:46:22;3.13;;;1.60;;
34571;SDS011;20808;48.974;8.452;2023-01-10T00:46:38;3.95;;;1.70;;
34571;SDS011;20808;48.974;8.452;2023-01-10T00:46:54;3.70;;;1.80;;
34571;SDS011;20808;48.974;8.452;2023-01-10T00:47:10;4.60;;;1.90;;
34571;SDS011;20808;48.974;8.452;2023-01-10T00:47:27;4.70;;;1.90;;
34571;SDS011;20808;48.974;8.452;2023-01-10T00:47:43;4.07;;;2.00;;
34571;SDS011;20808;48.974;8.452;2023-01-10T00:47:59;4.30;;;2.10;;
34571;SDS011;20808;48.974;8.452;2023-01-10T00:48:15;3.80;;;2.00;;
34571;SDS011;20808;48.974;8.452;2023-01-10T00:48:31;3.50;;;1.90;;
34571;SDS011;20808;48.974;8.452;2023-01-10T00:48:47;3.13;;;1.70;;
34571;SDS011;20808;48.974;8.452;2023-01-10T00:49:04;2.83;;;1.60;;
34571;SDS011;20808;48.974;8.452;2023-01-10T00:49:22;2.58;;;1.70;;
34571;SDS011;20808;48.974;8.452;2023-01-10T00:49:38;3.20;;;1.70;;
34571;SDS011;20808;48.974;8.452;2023-01-10T00:49:54;3.15;;;1.70;;
34571;SDS011;20808;48.974;8.452;2023-01-10T00:50:10;3.20;;;1.70;;
34571;SDS011;20808;48.974;8.452;2023-01-10T00:50:27;2.95;;;1.58;;
34571;SDS011;20808;48.974;8.452;2023-01-10T00:50:43;2.55;;;1.60;;
34571;SDS011;20808;48.974;8.452;2023-01-10T00:51:00;2.20;;;1.70;;
34571;SDS011;20808;48.974;8.452;2023-01-10T00:51:18;2.30;;;1.75;;
34571;SDS011;20808;48.974;8.452;2023-01-10T00:51:34;3.17;;;1.85;;
34571;SDS011;20808;48.974;8.452;2023-01-10T00:51:50;3.78;;;1.83;;
34571;SDS011;20808;48.974;8.452;2023-01-10T00:52:07;3.80;;;1.83;;
34571;SDS011;20808;48.974;8.452;2023-01-10T00:52:23;3.70;;;1.90;;
34571;SDS011;20808;48.974;8.452;2023-01-10T00:52:38;2.55;;;1.77;;
34571;SDS011;20808;48.974;8.452;2023-01-10T00:52:54;3.03;;;1.73;;
34571;SDS011;20808;48.974;8.452;2023-01-10T00:53:10;3.90;;;1.90;;
34571;SDS011;20808;48.974;8.452;2023-01-10T00:53:26;4.70;;;2.10;;
34571;SDS011;20808;48.974;8.452;2023-01-10T00:53:43;4.80;;;2.20;;
34571;SDS011;20808;48.974;8.452;2023-01-10T00:53:59;3.38;;;2.20;;
34571;SDS011;20808;48.974;8.452;2023-01-10T00:54:16;4.75;;;2.25;;
34571;SDS011;20808;48.974;8.452;2023-01-10T00:54:31;4.57;;;2.10;;
34571;SDS011;20808;48.974;8.452;2023-01-10T00:54:49;4.30;;;2.00;;
34571;SDS011;20808;48.974;8.452;2023-01-10T00:55:05;4.57;;;2.13;;
34571;SDS011;20808;48.974;8.452;2023-01-10T00:55:22;3.50;;;2.03;;
34571;SDS011;20808;48.974;8.452;2023-01-10T00:55:38;2.80;;;2.00;;
34571;SDS011;20808;48.974;8.452;2023-01-10T00:55:55;2.60;;;1.90;;
34571;SDS011;20808;48.974;8.452;2023-01-10T00:56:12;2.22;;;1.73;;
34571;SDS011;20808;48.974;8.452;2023-01-10T00:56:28;2.40;;;1.70;;
34571;SDS011;20808;48.974;8.452;2023-01-10T00:56:43;2.85;;;1.95;;
34571;SDS011;20808;48.974;8.452;2023-01-10T00:56:59;3.03;;;2.00;;
34571;SDS011;20808;48.974;8.452;2023-01-10T00:57:15;3.10;;;1.95;;
34571;SDS011;20808;48.974;8.452;2023-01-10T00:57:32;2.72;;;1.90;;
34571;SDS011;20808;48.974;8.452;2023-01-10T00:57:49;3.17;;;1.80;;
34571;SDS011;20808;48.974;8.452;2023-01-10T00:58:06;3.70;;;1.90;;
34571;SDS011;20808;48.974;8.452;2023-01-10T00:58:22;3.40;;;1.80;;
34571;SDS011;20808;48.974;8.452;2023-01-10T00:58:38;3.78;;;1.80;;
34571;SDS011;20808;48.974;8.452;2023-01-10T00:58:54;3.00;;;1.70;;
34571;SDS011;20808;48.974;8.452;2023-01-10T00:59:10;3.10;;;1.73;;
34571;SDS011;20808;48.974;8.452;2023-01-10T00:59:26;3.75;;;1.90;;
34571;SDS011;20808;48.974;8.452;2023-01-10T00:59:43;4.00;;;2.00;;
34571;SDS011;20808;48.974;8.452;2023-01-10T00:59:59;4.10;;;2.17;;
34571;SDS011;20808;48.974;8.452;2023-01-10T01:00:15;4.30;;;2.10;;
34571;SDS011;20808;48.974;8.452;2023-01-10T01:00:31;3.30;;;2.00;;
34571;SDS011;20808;48.974;8.452;2023-01-10T01:00:48;3.20;;;2.08;;
34571;SDS011;20808;48.974;8.452;2023-01-10T01:01:04;3.70;;;2.15;;
34571;SDS011;20808;48.974;8.452;2023-01-10T01:01:20;3.83;;;2.30;;
34571;SDS011;20808;48.974;8.452;2023-01-10T01:01:36;4.57;;;2.40;;
34571;SDS011;20808;48.974;8.452;2023-01-10T01:01:51;4.65;;;2.30;;
34571;SDS011;20808;48.974;8.452;2023-01-10T01:02:07;5.05;;;2.40;;
34571;SDS011;20808;48.974;8.452;2023-01-10T01:02:24;5.00;;;2.35;;
34571;SDS011;20808;48.974;8.452;2023-01-10T01:02:40;6.05;;;2.50;;
34571;SDS011;20808;48.974;8.452;2023-01-10T01:02:56;6.30;;;2.20;;
34571;SDS011;20808;48.974;8.452;2023-01-10T01:03:12;6.60;;;2.25;;
34571;SDS011;20808;48.974;8.452;2023-01-10T01:03:27;5.57;;;2.05;;
34571;SDS011;20808;48.974;8.452;2023-01-10T01:03:44;4.63;;;2.03;;
34571;SDS011;20808;48.974;8.452;2023-01-10T01:04:00;4.57;;;2.20;;
34571;SDS011;20808;48.974;8.452;2023-01-10T01:04:16;4.43;;;2.30;;
34571;SDS011;20808;48.974;8.452;2023-01-10T01:04:32;5.20;;;2.50;;
34571;SDS011;20808;48.974;8.452;2023-01-10T01:04:48;4.80;;;2.33;;
34571;SDS011;20808;48.974;8.452;2023-01-10T01:05:04;4.70;;;2.20;;
34571;SDS011;20808;48.974;8.452;2023-01-10T01:05:22;3.42;;;2.17;;
34571;SDS011;20808;48.974;8.452;2023-01-10T01:05:38;2.95;;;2.10;;
34571;SDS011;20808;48.974;8.452;2023-01-10T01:05:55;3.67;;;2.10;;
34571;SDS011;20808;48.974;8.452;2023-01-10T01:06:11;3.60;;;2.20;;
34571;SDS011;20808;48.974;8.452;2023-01-10T01:06:27;3.50;;;2.20;;
34571;SDS011;20808;48.974;8.452;2023-01-10T01:06:43;4.05;;;2.20;;
34571;SDS011;20808;48.974;8.452;2023-01-10T01:07:01;3.53;;;2.00;;
34571;SDS011;20808;48.974;8.452;2023-01-10T01:07:17;4.30;;;2.10;;
34571;SDS011;20808;48.974;8.452;2023-01-10T01:07:33;5.32;;;2.20;;
34571;SDS011;20808;48.974;8.452;2023-01-10T01:07:49;4.38;;;2.10;;
34571;SDS011;20808;48.974;8.452;2023-01-10T01:08:05;4.07;;;2.00;;
34571;SDS011;20808;48.974;8.452;2023-01-10T01:08:22;4.40;;;2.15;;
34571;SDS011;20808;48.974;8.452;2023-01-10T01:08:38;3.50;;;2.07;;
34571;SDS011;20808;48.974;8.452;2023-01-10T01:08:54;4.07;;;2.17;;
34571;SDS011;20808;48.974;8.452;2023-01-10T01:09:10;3.60;;;2.28;;
34571;SDS011;20808;48.974;8.452;2023-01-10T01:09:26;3.50;;;2.10;;
34571;SDS011;20808;48.974;8.452;2023-01-10T01:09:42;3.38;;;2.20;;
34571;SDS011;20808;48.974;8.452;2023-01-10T01:10:13;2.35;;;2.10;;
34571;SDS011;20808;48.974;8.452;2023-01-10T01:10:42;2.40;;;2.10;;
34571;SDS011;20808;48.974;8.452;2023-01-10T01:10:58;3.28;;;2.33;;
34571;SDS011;20808;48.974;8.452;2023-01-10T01:11:14;3.75;;;2.40;;
34571;SDS011;20808;48.974;8.452;2023-01-10T01:11:31;4.07;;;2.50;;
34571;SDS011;20808;48.974;8.452;2023-01-10T01:11:46;4.35;;;2.50;;
34571;SDS011;20808;48.974;8.452;2023-01-10T01:12:03;3.67;;;2.30;;
34571;SDS011;20808;48.974;8.452;2023-01-10T01:12:19;3.10;;;2.20;;
34571;SDS011;20808;48.974;8.452;2023-01-10T01:12:36;2.90;;;2.10;;
34571;SDS011;20808;48.974;8.452;2023-01-10T01:12:54;2.55;;;2.10;;
34571;SDS011;20808;48.974;8.452;2023-01-10T01:13:11;2.67;;;2.20;;
34571;SDS011;20808;48.974;8.452;2023-01-10T01:13:29;3.03;;;2.30;;
34571;SDS011;20808;48.974;8.452;2023-01-10T01:13:45;3.22;;;2.20;;
34571;SDS011;20808;48.974;8.452;2023-01-10T01:14:01;3.72;;;2.30;;
34571;SDS011;20808;48.974;8.452;2023-01-10T01:14:18;4.10;;;2.10;;
34571;SDS011;20808;48.974;8.452;2023-01-10T01:14:34;4.28;;;2.10;;
34571;SDS011;20808;48.974;8.452;2023-01-10T01:14:49;3.83;;;2.10;;
34571;SDS011;20808;48.974;8.452;2023-01-10T01:15:06;3.63;;;2.15;;
34571;SDS011;20808;48.974;8.452;2023-01-10T01:15:22;4.82;;;2.25;;
34571;SDS011;20808;48.974;8.452;2023-01-10T01:15:40;4.70;;;2.25;;
34571;SDS011;20808;48.974;8.452;2023-01-10T01:15:56;5.38;;;2.20;;
34571;SDS011;20808;48.974;8.452;2023-01-10T01:16:13;5.10;;;2.10;;
34571;SDS011;20808;48.974;8.452;2023-01-10T01:16:29;4.15;;;2.00;;
34571;SDS011;20808;48.974;8.452;2023-01-10T01:16:45;4.60;;;2.10;;
34571;SDS011;20808;48.974;8.452;2023-01-10T01:17:01;3.40;;;2.10;;
34571;SDS011;20808;48.974;8.452;2023-01-10T01:17:17;3.70;;;2.10;;
34571;SDS011;20808;48.974;8.452;2023-01-10T01:17:33;3.83;;;2.10;;
34571;SDS011;20808;48.974;8.452;2023-01-10T01:17:49;4.70;;;2.30;;
34571;SDS011;20808;48.974;8.452;2023-01-10T01:18:05;4.80;;;2.30;;
34571;SDS011;20808;48.974;8.452;2023-01-10T01:18:21;4.20;;;2.20;;
34571;SDS011;20808;48.974;8.452;2023-01-10T01:18:38;4.63;;;2.20;;
34571;SDS011;20808;48.974;8.452;2023-01-10T01:18:54;3.70;;;2.17;;
34571;SDS011;20808;48.974;8.452;2023-01-10T01:19:09;4.07;;;2.30;;
34571;SDS011;20808;48.974;8.452;2023-01-10T01:19:26;3.92;;;2.20;;
34571;SDS011;20808;48.974;8.452;2023-01-10T01:19:42;3.55;;;2.15;;
34571;SDS011;20808;48.974;8.452;2023-01-10T01:19:58;4.10;;;2.10;;
34571;SDS011;20808;48.974;8.452;2023-01-10T01:20:15;4.07;;;2.22;;
34571;SDS011;20808;48.974;8.452;2023-01-10T01:20:31;3.90;;;2.25;;
34571;SDS011;20808;48.974;8.452;2023-01-10T01:20:51;3.25;;;2.20;;
34571;SDS011;20808;48.974;8.452;2023-01-10T01:21:07;3.33;;;2.10;;
34571;SDS011;20808;48.974;8.452;2023-01-10T01:21:24;3.20;;;2.10;;
34571;SDS011;20808;48.974;8.452;2023-01-10T01:21:42;3.50;;;2.10;;
34571;SDS011;20808;48.974;8.452;2023-01-10T01:21:58;3.80;;;2.10;;
34571;SDS011;20808;48.974;8.452;2023-01-10T01:22:13;3.28;;;1.90;;
34571;SDS011;20808;48.974;8.452;2023-01-10T01:22:29;3.30;;;1.90;;
34571;SDS011;20808;48.974;8.452;2023-01-10T01:22:45;3.22;;;2.00;;
34571;SDS011;20808;48.974;8.452;2023-01-10T01:23:02;6.00;;;2.10;;
34571;SDS011;20808;48.974;8.452;2023-01-10T01:23:18;6.93;;;2.20;;
34571;SDS011;20808;48.974;8.452;2023-01-10T01:23:34;7.43;;;2.10;;
34571;SDS011;20808;48.974;8.452;2023-01-10T01:23:50;8.48;;;2.20;;
34571;SDS011;20808;48.974;8.452;2023-01-10T01:24:06;6.47;;;2.27;;
34571;SDS011;20808;48.974;8.452;2023-01-10T01:24:24;5.15;;;2.20;;
34571;SDS011;20808;48.974;8.452;2023-01-10T01:24:39;4.38;;;2.10;;
34571;SDS011;20808;48.974;8.452;2023-01-10T01:24:56;3.40;;;1.90;;
34571;SDS011;20808;48.974;8.452;2023-01-10T01:25:12;4.67;;;2.00;;
34571;SDS011;20808;48.974;8.452;2023-01-10T01:25:28;5.90;;;2.13;;
34571;SDS011;20808;48.974;8.452;2023-01-10T01:25:43;6.05;;;2.10;;
34571;SDS011;20808;48.974;8.452;2023-01-10T01:26:00;6.28;;;2.10;;
34571;SDS011;20808;48.974;8.452;2023-01-10T01:26:16;4.78;;;2.10;;
34571;SDS011;20808;48.974;8.452;2023-01-10T01:26:32;4.47;;;2.10;;
34571;SDS011;20808;48.974;8.452;2023-01-10T01:26:49;6.03;;;2.20;;
34571;SDS011;20808;48.974;8.452;2023-01-10T01:27:05;5.90;;;2.20;;
34571;SDS011;20808;48.974;8.452;2023-01-10T01:27:21;5.95;;;2.20;;
34571;SDS011;20808;48.974;8.452;2023-01-10T01:27:38;5.10;;;2.20;;
34571;SDS011;20808;48.974;8.452;2023-01-10T01:27:55;5.00;;;2.30;;
34571;SDS011;20808;48.974;8.452;2023-01-10T01:28:10;4.88;;;2.28;;
34571;SDS011;20808;48.974;8.452;2023-01-10T01:28:27;5.47;;;2.25;;
34571;SDS011;20808;48.974;8.452;2023-01-10T01:28:42;4.55;;;2.20;;
34571;SDS011;20808;48.974;8.452;2023-01-10T01:28:58;3.90;;;2.20;;
34571;SDS011;20808;48.974;8.452;2023-01-10T01:29:15;3.70;;;2.10;;
34571;SDS011;20808;48.974;8.452;2023-01-10T01:29:31;4.55;;;2.20;;
34571;SDS011;20808;48.974;8.452;2023-01-10T01:29:47;4.70;;;2.20;;
34571;SDS011;20808;48.974;8.452;2023-01-10T01:30:03;4.35;;;2.10;;
34571;SDS011;20808;48.974;8.452;2023-01-10T01:30:19;4.95;;;2.17;;
34571;SDS011;20808;48.974;8.452;2023-01-10T01:30:36;3.92;;;2.10;;
34571;SDS011;20808;48.974;8.452;2023-01-10T01:30:52;4.70;;;2.08;;
34571;SDS011;20808;48.974;8.452;2023-01-10T01:31:08;5.37;;;2.20;;
34571;SDS011;20808;48.974;8.452;2023-01-10T01:31:25;5.10;;;2.20;;
34571;SDS011;20808;48.974;8.452;2023-01-10T01:31:41;4.13;;;2.10;;
34571;SDS011;20808;48.974;8.452;2023-01-10T01:31:58;3.75;;;2.10;;
34571;SDS011;20808;48.974;8.452;2023-01-10T01:32:14;3.30;;;1.90;;
34571;SDS011;20808;48.974;8.452;2023-01-10T01:32:30;3.78;;;2.00;;
34571;SDS011;20808;48.974;8.452;2023-01-10T01:32:45;4.00;;;2.13;;
34571;SDS011;20808;48.974;8.452;2023-01-10T01:33:01;4.38;;;2.20;;
34571;SDS011;20808;48.974;8.452;2023-01-10T01:33:17;4.22;;;2.40;;
34571;SDS011;20808;48.974;8.452;2023-01-10T01:33:35;4.35;;;2.30;;
34571;SDS011;20808;48.974;8.452;2023-01-10T01:33:51;4.15;;;2.40;;
34571;SDS011;20808;48.974;8.452;2023-01-10T01:34:07;3.92;;;2.38;;
34571;SDS011;20808;48.974;8.452;2023-01-10T01:34:23;3.72;;;2.28;;
34571;SDS011;20808;48.974;8.452;2023-01-10T01:34:39;3.65;;;2.20;;
34571;SDS011;20808;48.974;8.452;2023-01-10T01:34:56;3.35;;;2.00;;
34571;SDS011;20808;48.974;8.452;2023-01-10T01:35:12;3.53;;;1.93;;
34571;SDS011;20808;48.974;8.452;2023-01-10T01:35:29;3.13;;;2.00;;
34571;SDS011;20808;48.974;8.452;2023-01-10T01:35:47;3.97;;;2.10;;
34571;SDS011;20808;48.974;8.452;2023-01-10T01:36:06;5.05;;;2.28;;
34571;SDS011;20808;48.974;8.452;2023-01-10T01:36:23;5.10;;;2.40;;
34571;SDS011;20808;48.974;8.452;2023-01-10T01:36:40;4.60;;;2.28;;
34571;SDS011;20808;48.974;8.452;2023-01-10T01:36:56;3.97;;;2.28;;
34571;SDS011;20808;48.974;8.452;2023-01-10T01:37:12;2.97;;;2.20;;
34571;SDS011;20808;48.974;8.452;2023-01-10T01:37:28;2.85;;;2.13;;
34571;SDS011;20808;48.974;8.452;2023-01-10T01:37:44;3.30;;;2.13;;
34571;SDS011;20808;48.974;8.452;2023-01-10T01:37:59;3.63;;;2.13;;
34571;SDS011;20808;48.974;8.452;2023-01-10T01:38:16;8.07;;;2.38;;
34571;SDS011;20808;48.974;8.452;2023-01-10T01:38:32;7.45;;;2.28;;
34571;SDS011;20808;48.974;8.452;2023-01-10T01:38:48;8.13;;;2.25;;
34571;SDS011;20808;48.974;8.452;2023-01-10T01:39:04;6.63;;;2.07;;
34571;SDS011;20808;48.974;8.452;2023-01-10T01:39:21;4.13;;;2.10;;
34571;SDS011;20808;48.974;8.452;2023-01-10T01:39:36;4.57;;;2.20;;
34571;SDS011;20808;48.974;8.452;2023-01-10T01:39:52;4.40;;;2.20;;
34571;SDS011;20808;48.974;8.452;2023-01-10T01:40:09;5.18;;;2.38;;
34571;SDS011;20808;48.974;8.452;2023-01-10T01:40:28;5.53;;;2.40;;
34571;SDS011;20808;48.974;8.452;2023-01-10T01:40:43;5.70;;;2.42;;
34571;SDS011;20808;48.974;8.452;2023-01-10T01:40:59;4.93;;;2.20;;
34571;SDS011;20808;48.974;8.452;2023-01-10T01:41:16;5.20;;;2.10;;
34571;SDS011;20808;48.974;8.452;2023-01-10T01:41:50;3.72;;;2.10;;
34571;SDS011;20808;48.974;8.452;2023-01-10T01:42:19;3.95;;;2.28;;
34571;SDS011;20808;48.974;8.452;2023-01-10T01:42:39;5.10;;;2.20;;